createdAt,value
2022-08-26T00:02:16.160Z,10.63
2022-08-26T00:05:25.609Z,11.03
2022-08-26T00:08:32.809Z,10.03
2022-08-26T00:11:41.537Z,10.97
2022-08-26T00:14:48.301Z,10.77
2022-08-26T00:17:55.741Z,10.17
2022-08-26T00:21:06.098Z,10.17
2022-08-26T00:24:13.458Z,11.43
2022-08-26T00:27:23.014Z,10.67
2022-08-26T00:30:31.950Z,10.70
2022-08-26T00:33:38.872Z,10.20
2022-08-26T00:36:44.795Z,10.73
2022-08-26T00:39:53.084Z,10.20
2022-08-26T00:43:03.332Z,9.90
2022-08-26T00:46:19.789Z,10.07
2022-08-26T00:49:32.899Z,10.77
2022-08-26T00:52:40.726Z,11.30
2022-08-26T00:55:55.859Z,11.97
2022-08-26T00:59:10.494Z,12.30
2022-08-26T01:02:20.186Z,12.03
2022-08-26T01:05:28.726Z,13.53
2022-08-26T01:08:37.307Z,12.97
2022-08-26T01:11:46.324Z,13.63
2022-08-26T01:14:55.370Z,12.63
2022-08-26T01:18:03.114Z,12.27
2022-08-26T01:21:19.210Z,10.40
2022-08-26T01:24:32.349Z,11.37
2022-08-26T01:27:38.509Z,14.13
2022-08-26T01:30:47.111Z,11.77
2022-08-26T01:34:00.603Z,11.77
2022-08-26T01:37:11.697Z,10.33
2022-08-26T01:40:28.469Z,10.57
2022-08-26T01:43:36.521Z,9.70
2022-08-26T01:46:42.818Z,9.07
2022-08-26T01:49:54.193Z,8.90
2022-08-26T01:53:03.130Z,8.93
2022-08-26T01:56:15.124Z,8.87
2022-08-26T01:59:23.748Z,9.10
2022-08-26T02:02:31.041Z,8.77
2022-08-26T02:05:38.198Z,9.27
2022-08-26T02:08:48.702Z,9.20
2022-08-26T02:12:03.225Z,8.93
2022-08-26T02:15:15.730Z,8.53
2022-08-26T02:18:23.755Z,8.97
2022-08-26T02:21:31.817Z,8.80
2022-08-26T02:24:50.814Z,9.43
2022-08-26T02:28:00.462Z,8.83
2022-08-26T02:31:07.918Z,9.10
2022-08-26T02:34:17.510Z,9.30
2022-08-26T02:37:23.519Z,8.77
2022-08-26T02:40:33.954Z,9.27
2022-08-26T02:43:44.647Z,8.90
2022-08-26T02:46:51.656Z,9.77
2022-08-26T02:50:00.004Z,8.67
2022-08-26T02:53:09.024Z,9.07
2022-08-26T02:56:15.990Z,10.10
2022-08-26T02:59:26.318Z,8.93
2022-08-26T03:02:34.575Z,9.13
2022-08-26T03:05:41.596Z,9.77
2022-08-26T03:08:49.035Z,10.80
2022-08-26T03:11:56.163Z,10.27
2022-08-26T03:15:16.473Z,10.63
2022-08-26T03:18:25.498Z,10.67
2022-08-26T03:21:31.952Z,10.47
2022-08-26T03:24:40.179Z,10.10
2022-08-26T03:27:47.188Z,10.33
2022-08-26T03:30:54.634Z,10.00
2022-08-26T03:34:01.093Z,8.77
2022-08-26T03:37:08.727Z,8.90
2022-08-26T03:40:16.061Z,9.73
2022-08-26T03:43:27.411Z,9.73
2022-08-26T03:46:36.703Z,8.90
2022-08-26T03:49:43.583Z,9.20
2022-08-26T03:52:51.813Z,8.60
2022-08-26T03:55:59.090Z,7.47
2022-08-26T03:59:07.628Z,8.50
2022-08-26T04:02:17.428Z,8.27
2022-08-26T04:05:25.835Z,9.53
2022-08-26T04:08:35.350Z,9.83
2022-08-26T04:11:42.260Z,9.23
2022-08-26T04:14:49.593Z,9.80
2022-08-26T04:17:58.723Z,9.50
2022-08-26T04:21:08.011Z,9.73
2022-08-26T04:24:17.546Z,9.67
2022-08-26T04:27:24.477Z,9.60
2022-08-26T04:30:31.254Z,9.40
2022-08-26T04:33:42.076Z,9.70
2022-08-26T04:36:51.640Z,9.43
2022-08-26T04:39:58.456Z,9.17
2022-08-26T04:43:06.333Z,10.50
2022-08-26T04:46:14.522Z,12.00
2022-08-26T04:49:23.975Z,10.90
2022-08-26T04:52:32.942Z,11.53
2022-08-26T04:55:42.882Z,11.50
2022-08-26T04:58:52.913Z,10.67
2022-08-26T05:01:59.982Z,10.83
2022-08-26T05:05:12.434Z,10.50
2022-08-26T05:08:18.916Z,9.67
2022-08-26T05:11:25.801Z,9.40
2022-08-26T05:14:32.150Z,10.27
2022-08-26T05:17:40.799Z,9.50
2022-08-26T05:20:54.941Z,9.37
2022-08-26T05:24:03.100Z,9.70
2022-08-26T05:27:11.539Z,9.13
2022-08-26T05:30:19.207Z,8.23
2022-08-26T05:33:27.217Z,7.17
2022-08-26T05:36:40.437Z,7.13
2022-08-26T05:39:48.766Z,7.73
2022-08-26T05:42:58.863Z,7.13
2022-08-26T05:46:10.119Z,6.93
2022-08-26T05:49:18.905Z,6.90
2022-08-26T05:52:28.238Z,6.83
2022-08-26T05:55:35.239Z,6.83
2022-08-26T05:58:42.810Z,6.97
2022-08-26T06:01:53.154Z,6.33
2022-08-26T06:04:59.930Z,5.90
2022-08-26T06:08:19.379Z,6.50
2022-08-26T06:11:27.531Z,6.10
2022-08-26T06:14:34.576Z,5.53
2022-08-26T06:17:40.975Z,5.83
2022-08-26T06:20:57.614Z,5.30
2022-08-26T06:24:27.237Z,6.20
2022-08-26T06:27:52.071Z,5.70
2022-08-26T06:30:58.206Z,5.45
2022-08-26T06:34:10.768Z,5.45
2022-08-26T06:37:17.457Z,6.03
2022-08-26T06:40:28.002Z,5.95
2022-08-26T06:43:34.044Z,5.72
2022-08-26T06:46:41.142Z,5.63
2022-08-26T06:49:47.451Z,5.88
2022-08-26T06:52:55.682Z,5.90
2022-08-26T06:56:07.944Z,5.18
2022-08-26T06:59:16.302Z,4.80
2022-08-26T07:02:23.151Z,5.40
2022-08-26T07:05:30.264Z,5.63
2022-08-26T07:08:36.577Z,5.20
2022-08-26T07:11:46.183Z,4.95
2022-08-26T07:14:52.859Z,4.93
2022-08-26T07:18:00.674Z,5.05
2022-08-26T07:21:09.874Z,5.47
2022-08-26T07:24:16.663Z,5.20
2022-08-26T07:27:25.553Z,5.30
2022-08-26T07:30:32.689Z,5.35
2022-08-26T07:33:39.499Z,5.47
2022-08-26T07:36:47.981Z,4.63
2022-08-26T07:39:54.826Z,5.13
2022-08-26T07:43:06.195Z,5.40
2022-08-26T07:46:16.370Z,4.85
2022-08-26T07:49:24.530Z,5.30
2022-08-26T07:52:33.210Z,4.82
2022-08-26T07:55:40.572Z,5.20
2022-08-26T07:58:51.765Z,5.22
2022-08-26T08:02:03.349Z,4.82
2022-08-26T08:05:10.186Z,5.03
2022-08-26T08:08:27.164Z,4.95
2022-08-26T08:11:34.225Z,4.55
2022-08-26T08:14:46.944Z,5.15
2022-08-26T08:17:55.627Z,4.90
2022-08-26T08:21:23.862Z,4.80
2022-08-26T08:24:30.174Z,5.22
2022-08-26T08:27:37.724Z,4.40
2022-08-26T08:30:46.730Z,5.38
2022-08-26T08:33:54.074Z,4.88
2022-08-26T08:37:00.151Z,5.43
2022-08-26T08:40:10.149Z,4.68
2022-08-26T08:43:20.540Z,4.18
2022-08-26T08:46:33.015Z,4.72
2022-08-26T08:49:39.161Z,4.90
2022-08-26T08:52:49.321Z,5.28
2022-08-26T08:56:04.857Z,4.90
2022-08-26T08:59:18.143Z,4.75
2022-08-26T09:02:36.889Z,5.07
2022-08-26T09:05:48.829Z,4.75
2022-08-26T09:08:55.620Z,5.20
2022-08-26T09:12:05.859Z,4.88
2022-08-26T09:15:20.656Z,5.47
2022-08-26T09:18:53.440Z,4.65
2022-08-26T09:21:59.863Z,5.55
2022-08-26T09:25:13.011Z,4.80
2022-08-26T09:28:21.599Z,4.25
2022-08-26T09:31:31.058Z,8.68
2022-08-26T09:34:54.984Z,4.55
2022-08-26T09:38:03.106Z,4.57
2022-08-26T09:41:23.101Z,4.68
2022-08-26T09:44:30.801Z,4.75
2022-08-26T09:47:41.623Z,4.93
2022-08-26T09:50:58.842Z,3.97
2022-08-26T09:54:08.127Z,4.60
2022-08-26T09:57:21.517Z,4.10
2022-08-26T10:00:38.381Z,4.43
2022-08-26T10:03:47.116Z,4.18
2022-08-26T10:07:04.331Z,3.80
2022-08-26T10:10:15.156Z,4.38
2022-08-26T10:13:29.689Z,4.00
2022-08-26T10:16:48.765Z,4.47
2022-08-26T10:20:03.409Z,4.13
2022-08-26T10:23:19.931Z,4.07
2022-08-26T10:26:36.332Z,3.00
2022-08-26T10:29:47.204Z,3.22
2022-08-26T10:32:56.420Z,3.35
2022-08-26T10:36:29.436Z,3.55
2022-08-26T10:39:42.742Z,3.63
2022-08-26T10:42:55.772Z,3.45
2022-08-26T10:46:07.074Z,3.60
2022-08-26T10:49:18.095Z,3.58
2022-08-26T10:52:31.715Z,3.38
2022-08-26T10:55:49.121Z,3.50
2022-08-26T10:59:06.534Z,3.17
2022-08-26T11:02:25.268Z,3.67
2022-08-26T11:05:31.221Z,3.38
2022-08-26T11:08:38.245Z,3.55
2022-08-26T11:11:53.063Z,3.47
2022-08-26T11:15:00.857Z,3.55
2022-08-26T11:18:10.857Z,3.00
2022-08-26T11:21:52.553Z,3.58
2022-08-26T11:25:11.630Z,3.30
2022-08-26T11:28:36.532Z,3.28
2022-08-26T11:31:57.806Z,3.00
2022-08-26T11:35:06.446Z,4.28
2022-08-26T11:38:19.041Z,3.55
2022-08-26T11:41:30.029Z,3.28
2022-08-26T11:44:49.038Z,3.55
2022-08-26T11:47:57.684Z,3.13
2022-08-26T11:51:06.242Z,3.03
2022-08-26T11:54:18.329Z,3.08
2022-08-26T11:57:47.398Z,3.40
2022-08-26T12:01:01.253Z,3.22
2022-08-26T12:04:13.133Z,3.80
2022-08-26T12:07:24.185Z,3.13
2022-08-26T12:10:33.923Z,2.90
2022-08-26T12:13:42.867Z,3.15
2022-08-26T12:16:55.262Z,3.00
2022-08-26T12:20:03.111Z,2.85
2022-08-26T12:23:09.494Z,2.85
2022-08-26T12:26:24.545Z,2.65
2022-08-26T12:29:31.435Z,2.30
2022-08-26T12:32:57.616Z,2.65
2022-08-26T12:36:06.151Z,2.58
2022-08-26T12:39:16.968Z,3.08
2022-08-26T12:42:43.400Z,3.35
2022-08-26T12:46:00.935Z,3.03
2022-08-26T12:49:11.187Z,2.78
2022-08-26T12:52:32.979Z,2.95
2022-08-26T12:55:43.873Z,3.15
2022-08-26T12:59:06.369Z,2.80
2022-08-26T13:02:12.499Z,2.90
2022-08-26T13:05:29.218Z,2.85
2022-08-26T13:08:35.133Z,2.65
2022-08-26T13:12:02.238Z,2.67
2022-08-26T13:15:10.423Z,2.90
2022-08-26T13:18:17.214Z,2.80
2022-08-26T13:21:27.876Z,2.90
2022-08-26T13:24:38.395Z,2.92
2022-08-26T13:27:44.685Z,2.75
2022-08-26T13:30:51.513Z,3.20
2022-08-26T13:33:57.938Z,3.42
2022-08-26T13:37:08.478Z,3.15
2022-08-26T13:40:15.210Z,3.22
2022-08-26T13:43:22.293Z,3.28
2022-08-26T13:46:28.574Z,3.35
2022-08-26T13:49:35.984Z,3.10
2022-08-26T13:52:44.998Z,3.30
2022-08-26T13:55:52.529Z,3.10
2022-08-26T13:58:59.673Z,3.33
2022-08-26T14:02:06.850Z,3.50
2022-08-26T14:05:15.504Z,3.72
2022-08-26T14:08:26.277Z,3.20
2022-08-26T14:11:39.057Z,3.40
2022-08-26T14:14:59.229Z,4.10
2022-08-26T14:18:08.821Z,3.85
2022-08-26T14:21:16.678Z,3.97
2022-08-26T14:24:25.424Z,3.70
2022-08-26T14:27:32.177Z,3.58
2022-08-26T14:30:38.951Z,3.42
2022-08-26T14:33:46.138Z,3.72
2022-08-26T14:36:52.052Z,3.30
2022-08-26T14:40:03.517Z,3.85
2022-08-26T14:43:10.010Z,3.40
2022-08-26T14:46:18.539Z,3.45
2022-08-26T14:49:27.473Z,3.40
2022-08-26T14:52:54.238Z,3.35
2022-08-26T14:56:03.382Z,3.10
2022-08-26T14:59:13.821Z,3.25
2022-08-26T15:02:32.595Z,3.30
2022-08-26T15:05:48.109Z,3.58
2022-08-26T15:08:54.391Z,3.30
2022-08-26T15:12:04.269Z,3.65
2022-08-26T15:15:13.468Z,3.00
2022-08-26T15:18:20.551Z,2.97
2022-08-26T15:21:27.263Z,3.70
2022-08-26T15:24:34.051Z,3.15
2022-08-26T15:27:43.335Z,3.28
2022-08-26T15:30:50.435Z,3.03
2022-08-26T15:33:59.620Z,3.20
2022-08-26T15:37:09.908Z,3.03
2022-08-26T15:40:15.902Z,3.53
2022-08-26T15:43:29.158Z,2.90
2022-08-26T15:46:35.706Z,3.85
2022-08-26T15:49:44.877Z,3.67
2022-08-26T15:52:51.119Z,2.63
2022-08-26T15:55:59.326Z,3.30
2022-08-26T15:59:11.916Z,3.05
2022-08-26T16:02:20.182Z,3.25
2022-08-26T16:05:26.491Z,2.85
2022-08-26T16:08:36.431Z,3.45
2022-08-26T16:11:42.684Z,3.05
2022-08-26T16:14:54.177Z,3.08
2022-08-26T16:18:03.296Z,3.22
2022-08-26T16:21:13.507Z,3.80
2022-08-26T16:24:24.894Z,3.38
2022-08-26T16:27:34.461Z,3.58
2022-08-26T16:30:45.089Z,2.85
2022-08-26T16:33:52.672Z,2.92
2022-08-26T16:36:58.667Z,3.35
2022-08-26T16:40:08.846Z,3.17
2022-08-26T16:43:15.377Z,3.33
2022-08-26T16:46:26.457Z,3.50
2022-08-26T16:49:32.459Z,3.85
2022-08-26T16:52:39.916Z,3.72
2022-08-26T16:55:48.294Z,3.67
2022-08-26T16:58:55.099Z,2.97
2022-08-26T17:02:05.211Z,3.63
2022-08-26T17:05:13.803Z,3.75
2022-08-26T17:08:24.294Z,3.97
2022-08-26T17:11:36.030Z,4.35
2022-08-26T17:14:42.588Z,4.57
2022-08-26T17:17:56.340Z,4.70
2022-08-26T17:21:06.462Z,4.18
2022-08-26T17:24:13.243Z,4.22
2022-08-26T17:27:19.165Z,4.45
2022-08-26T17:30:27.622Z,4.53
2022-08-26T17:33:39.475Z,7.97
2022-08-26T17:36:46.577Z,6.05
2022-08-26T17:39:53.285Z,5.65
2022-08-26T17:43:01.352Z,6.13
2022-08-26T17:46:10.072Z,5.78
2022-08-26T17:49:19.989Z,5.25
2022-08-26T17:52:25.993Z,5.13
2022-08-26T17:55:33.149Z,5.40
2022-08-26T17:58:39.385Z,5.38
2022-08-26T18:01:46.233Z,4.72
2022-08-26T18:04:56.086Z,5.28
2022-08-26T18:08:03.099Z,4.40
2022-08-26T18:11:12.219Z,4.97
2022-08-26T18:14:19.428Z,4.95
2022-08-26T18:17:25.782Z,4.10
2022-08-26T18:20:35.444Z,4.00
2022-08-26T18:23:41.659Z,4.38
2022-08-26T18:26:51.198Z,4.97
2022-08-26T18:29:58.431Z,4.60
2022-08-26T18:33:07.106Z,4.18
2022-08-26T18:36:22.585Z,5.00
2022-08-26T18:39:29.350Z,4.65
2022-08-26T18:42:35.269Z,4.78
2022-08-26T18:45:42.319Z,5.25
2022-08-26T18:48:49.069Z,4.60
2022-08-26T18:52:00.794Z,5.20
2022-08-26T18:55:08.159Z,4.20
2022-08-26T18:58:16.638Z,5.30
2022-08-26T19:01:27.134Z,4.80
2022-08-26T19:04:34.565Z,4.63
2022-08-26T19:07:43.703Z,5.22
2022-08-26T19:10:54.678Z,5.95
2022-08-26T19:14:00.586Z,5.00
2022-08-26T19:17:09.092Z,4.97
2022-08-26T19:20:15.416Z,4.78
2022-08-26T19:23:32.775Z,5.13
2022-08-26T19:26:39.288Z,4.82
2022-08-26T19:29:46.852Z,4.97
2022-08-26T19:32:53.221Z,5.38
2022-08-26T19:36:00.758Z,5.03
2022-08-26T19:39:11.885Z,4.85
2022-08-26T19:42:19.671Z,5.53
2022-08-26T19:45:25.969Z,5.47
2022-08-26T19:48:32.655Z,5.60
2022-08-26T19:51:39.444Z,5.30
2022-08-26T19:54:49.132Z,5.35
2022-08-26T19:57:55.957Z,5.45
2022-08-26T20:01:03.208Z,5.22
2022-08-26T20:04:09.578Z,5.45
2022-08-26T20:07:18.932Z,5.65
2022-08-26T20:10:28.079Z,4.95
2022-08-26T20:13:36.844Z,5.47
2022-08-26T20:16:42.940Z,5.38
2022-08-26T20:20:07.892Z,5.85
2022-08-26T20:23:36.682Z,6.22
2022-08-26T20:26:47.536Z,5.95
2022-08-26T20:29:53.450Z,6.47
2022-08-26T20:33:00.362Z,5.90
2022-08-26T20:36:07.938Z,5.85
2022-08-26T20:39:15.026Z,5.72
2022-08-26T20:42:23.724Z,5.78
2022-08-26T20:45:31.055Z,6.15
2022-08-26T20:48:36.971Z,6.05
2022-08-26T20:51:45.985Z,6.72
2022-08-26T20:54:51.882Z,6.13
2022-08-26T20:58:03.107Z,6.03
2022-08-26T21:01:09.684Z,5.45
2022-08-26T21:04:21.085Z,6.10
2022-08-26T21:07:26.903Z,5.78
2022-08-26T21:10:34.585Z,6.20
2022-08-26T21:14:04.016Z,5.55
2022-08-26T21:17:11.912Z,6.60
2022-08-26T21:20:17.864Z,6.20
2022-08-26T21:23:29.090Z,5.95
2022-08-26T21:26:35.432Z,6.15
2022-08-26T21:29:45.100Z,6.70
2022-08-26T21:32:54.894Z,7.25
2022-08-26T21:36:03.222Z,7.28
2022-08-26T21:39:11.753Z,6.95
2022-08-26T21:42:19.006Z,7.55
2022-08-26T21:45:27.991Z,7.40
2022-08-26T21:48:35.367Z,7.70
2022-08-26T21:51:44.003Z,7.93
2022-08-26T21:54:51.315Z,7.43
2022-08-26T21:57:58.431Z,7.83
2022-08-26T22:01:12.267Z,7.73
2022-08-26T22:04:18.947Z,7.23
2022-08-26T22:07:26.071Z,7.53
2022-08-26T22:10:31.922Z,7.50
2022-08-26T22:13:41.182Z,7.32
2022-08-26T22:16:50.542Z,7.13
2022-08-26T22:19:58.288Z,7.57
2022-08-26T22:23:08.034Z,7.90
2022-08-26T22:26:25.205Z,8.53
2022-08-26T22:29:33.418Z,8.17
2022-08-26T22:32:44.169Z,9.73
2022-08-26T22:35:54.431Z,10.50
2022-08-26T22:39:03.129Z,8.80
2022-08-26T22:42:09.515Z,8.27
2022-08-26T22:45:16.365Z,8.17
2022-08-26T22:48:27.035Z,7.50
2022-08-26T22:51:34.820Z,7.40
2022-08-26T22:54:41.461Z,7.30
2022-08-26T22:57:48.456Z,6.67
2022-08-26T23:00:54.417Z,7.70
2022-08-26T23:04:06.482Z,7.97
2022-08-26T23:07:12.517Z,7.10
2022-08-26T23:10:19.514Z,6.70
2022-08-26T23:13:25.465Z,7.97
2022-08-26T23:16:37.936Z,6.97
2022-08-26T23:19:48.635Z,8.23
2022-08-26T23:22:55.810Z,8.57
2022-08-26T23:26:05.942Z,7.83
2022-08-26T23:29:16.110Z,7.30
2022-08-26T23:32:22.118Z,8.00
2022-08-26T23:35:29.154Z,7.70
2022-08-26T23:38:35.034Z,7.50
2022-08-26T23:41:42.371Z,6.63
2022-08-26T23:44:49.117Z,7.47
2022-08-26T23:47:57.390Z,7.30
2022-08-26T23:51:21.914Z,7.53
2022-08-26T23:54:29.013Z,7.63
2022-08-26T23:57:37.043Z,7.47
